KGZH

Details ICAO KGZH
Name MIDDLETON FLD
Region United States
Timezone America/Chicago (UTC-6.0)
Plans Departing 0
Arriving 1
Stats Elevation 259 ft / 79 m (AMSL)
Location 31.415802° -87.044071°
Runways 2
Magnetic Variation 3.021° W
Sunrise 2017-12-11 12:38:49 UTC / 2017-12-11 06:38:49 Local
Sunset 2017-12-11 22:47:11 UTC / 2017-12-11 16:47:11 Local
Advertisement - Login to hide

Runways

ID Width Length Bearing (true) Bearing (mag) Surface Threshold Offset Overrun Length
01 150 ft / 46 m 4,013 ft / 1,223 m 5.32° 8.34° Asphalt 0 ft / 0 m 0 ft / 0 m
10 150 ft / 46 m 3,993 ft / 1,217 m 99.56° 102.58° Asphalt 0 ft / 0 m 0 ft / 0 m
19 150 ft / 46 m 4,013 ft / 1,223 m 185.32° 188.34° Asphalt 0 ft / 0 m 0 ft / 0 m
28 150 ft / 46 m 3,993 ft / 1,217 m 279.56° 282.58° Asphalt 0 ft / 0 m 0 ft / 0 m

Map

Weather


0- 5 10 15 20 25 30 35+ Temperature / ° C

Clouds and Precipitation
Forecast for 2017-12-12 06:00 UTC. Updated an hour ago

Ground ~20,000 ft ~40,000 ft Winds

METAR

KGZH 120153Z AUTO 22006KT 10SM CLR 11/05 A3009 RMK AO2 SLP190 T01060050

TAF

Not found

Frequencies

Recorded 133.42 MHz ASOS
Unicom 122.70 MHz CTAF/UNICOM
Warning: Do not use this data for real-world aviation or navigation. No guarantee of current accuracy is given.